Terminal Aerodrome Forecast
Issued by NWS

Home | Current Version | Previous Version | Text Only | Print | Product List | Glossary On
Versions: 1 2 3 4 5 6 7 8 9 10 11 12 13 14 15 16 17 18 19 20 21 22 23 24 25 26 27 28 29 30
000
FTUS43 KILX 302331
TAFBMI
TAF
KBMI 302331Z 3100/3124 VRB05KT P6SM SCT035
     FM310800 VRB03KT 3SM BR SCT035
     FM311100 VRB03KT 2SM BR FEW015 SCT035
     FM311400 01004KT P6SM BKN035=

USA.gov is the U.S. government's official web portal to all federal, state and local government web resources and services.